Time;durP1;ratioP1;P1;durP2;ratioP2;P2;SDS_P1;SDS_P2;PMS_P1;PMS_P2;Temp;Humidity;BMP_temperature;BMP_pressure;BME280_temperature;BME280_humidity;BME280_pressure;Samples;Min_cycle;Max_cycle;Signal;HPM_P1;HPM_P2
2023/05/09 00:00:13;;;;;;;4.80;2.50;;;;;;;9.33;38.20;101537.47;1819656;79;21070;-56
2023/05/09 00:02:40;;;;;;;5.95;2.45;;;;;;;9.32;38.71;101533.02;1819509;79;21034;-55
2023/05/09 00:05:09;;;;;;;6.10;2.30;;;;;;;9.28;38.83;101535.22;1819533;79;21093;-55
2023/05/09 00:07:40;;;;;;;6.03;2.47;;;;;;;9.25;38.62;101529.22;1819894;79;21050;-56
2023/05/09 00:10:09;;;;;;;4.33;2.70;;;;;;;9.26;38.79;101535.04;1819608;79;21648;-54
2023/05/09 00:12:38;;;;;;;7.92;2.62;;;;;;;9.19;39.32;101531.58;1819795;79;21019;-57
2023/05/09 00:15:09;;;;;;;4.20;2.60;;;;;;;9.12;39.36;101528.28;1819812;79;20999;-55
2023/05/09 00:17:38;;;;;;;4.70;2.60;;;;;;;9.08;39.57;101531.81;1819534;79;21431;-56
2023/05/09 00:20:11;;;;;;;6.70;2.50;;;;;;;9.07;39.54;101526.00;1819744;79;21007;-55
2023/05/09 00:22:40;;;;;;;4.12;2.20;;;;;;;9.07;39.54;101530.10;1819543;79;21493;-55
2023/05/09 00:25:10;;;;;;;4.80;2.80;;;;;;;9.08;39.59;101533.19;1819646;79;21003;-55
2023/05/09 00:27:39;;;;;;;5.72;2.77;;;;;;;9.06;39.53;101535.22;1819482;79;21446;-55
2023/05/09 00:30:16;;;;;;;6.45;2.50;;;;;;;9.07;39.51;101532.84;1819870;79;21433;-55
2023/05/09 00:32:45;;;;;;;7.60;2.70;;;;;;;9.08;39.46;101538.66;1819591;79;21467;-55
2023/05/09 00:35:14;;;;;;;6.20;2.70;;;;;;;9.09;39.34;101534.91;1819527;79;21430;-55
2023/05/09 00:37:45;;;;;;;6.55;2.80;;;;;;;9.09;39.09;101530.80;1819548;79;21496;-54
2023/05/09 00:40:14;;;;;;;5.62;2.67;;;;;;;9.07;39.27;101531.47;1819631;79;21481;-54
2023/05/09 00:42:42;;;;;;;5.47;2.52;;;;;;;9.08;39.24;101529.09;1819703;79;21085;-54
2023/05/09 00:45:11;;;;;;;7.12;2.70;;;;;;;9.08;39.17;101526.35;1819723;79;21090;-55
2023/05/09 00:47:41;;;;;;;7.37;2.55;;;;;;;9.07;39.14;101531.98;1819838;79;21915;-55
2023/05/09 00:50:10;;;;;;;4.80;2.50;;;;;;;9.06;38.90;101527.02;1819781;79;21050;-55
2023/05/09 00:52:39;;;;;;;4.42;2.42;;;;;;;9.08;38.89;101536.43;1819854;79;21015;-55
2023/05/09 00:55:09;;;;;;;6.72;2.80;;;;;;;9.04;38.77;101533.66;1819594;79;21058;-56
2023/05/09 00:57:38;;;;;;;4.12;2.70;;;;;;;9.03;38.85;101537.42;1787535;79;21034;-55
2023/05/09 01:00:13;;;;;;;4.70;3.00;;;;;;;9.01;39.06;101529.89;1819401;79;21459;-54
2023/05/09 01:02:47;;;;;;;5.08;2.83;;;;;;;8.99;38.90;101542.34;1819091;79;21035;-57
2023/05/09 01:05:17;;;;;;;7.30;2.95;;;;;;;9.02;38.98;101532.97;1819713;79;20999;-59
2023/05/09 01:08:12;;;;;;;5.25;2.62;;;;;;;9.01;39.06;101535.35;1819539;79;21034;-57
2023/05/09 01:10:59;;;;;;;5.87;3.20;;;;;;;9.02;39.12;101538.44;1819252;79;21431;-55
2023/05/09 01:13:31;;;;;;;6.20;3.00;;;;;;;9.00;39.02;101535.00;1819535;79;20971;-56
2023/05/09 01:16:11;;;;;;;4.40;3.00;;;;;;;9.00;39.27;101532.27;1819297;79;21050;-56
2023/05/09 01:18:45;;;;;;;10.00;3.62;;;;;;;8.99;39.43;101534.66;1819102;79;21069;-56
2023/05/09 01:21:28;;;;;;;4.42;2.70;;;;;;;8.98;39.23;101538.41;1819575;79;21503;-56
2023/05/09 01:24:28;;;;;;;5.08;2.70;;;;;;;8.98;39.00;101528.33;1819502;79;21022;-57
2023/05/09 01:27:16;;;;;;;5.20;3.05;;;;;;;8.98;38.90;101529.70;1819607;79;21031;-56
2023/05/09 01:29:56;;;;;;;6.85;3.30;;;;;;;8.96;38.99;101528.14;1806537;79;21460;-54
2023/05/09 01:32:27;;;;;;;;;;;;;;;8.96;39.00;101538.56;1806526;79;21007;-56
2023/05/09 01:34:58;;;;;;;6.55;2.83;;;;;;;8.96;39.02;101530.88;1804075;79;20150;-56
2023/05/09 01:37:32;;;;;;;8.35;3.20;;;;;;;8.96;39.17;101534.97;1803836;79;21439;-55
2023/05/09 01:40:08;;;;;;;8.58;3.30;;;;;;;8.95;39.21;101525.06;1803875;79;21333;-56
2023/05/09 01:42:44;;;;;;;10.60;3.90;;;;;;;8.93;39.16;101533.42;1803876;79;21020;-57
2023/05/09 01:45:13;;;;;;;9.70;3.98;;;;;;;8.94;39.21;101535.13;1804075;79;21058;-56
2023/05/09 01:47:43;;;;;;;7.45;3.47;;;;;;;8.95;39.10;101540.09;1778066;79;21435;-56
2023/05/09 01:50:12;;;;;;;9.48;3.83;;;;;;;8.95;39.27;101538.72;1804013;79;21035;-57
2023/05/09 01:52:41;;;;;;;8.08;3.40;;;;;;;8.90;39.19;101533.73;1804139;79;21506;-57
2023/05/09 01:55:10;;;;;;;5.40;3.12;;;;;;;8.86;39.06;101532.34;1777833;79;21066;-56
2023/05/09 01:57:39;;;;;;;9.73;3.52;;;;;;;8.85;39.25;101537.45;1803932;79;21003;-56
2023/05/09 02:00:09;;;;;;;5.67;3.05;;;;;;;8.86;39.26;101533.70;1804017;79;21512;-55
2023/05/09 02:02:41;;;;;;;5.08;2.90;;;;;;;8.87;39.22;101539.52;1804143;79;21070;-56
2023/05/09 02:05:11;;;;;;;6.08;3.15;;;;;;;8.89;39.33;101534.75;1804057;79;21431;-55
2023/05/09 02:07:41;;;;;;;5.87;2.98;;;;;;;8.87;39.29;101534.91;1803937;79;21437;-56
2023/05/09 02:10:11;;;;;;;5.53;3.00;;;;;;;8.85;39.04;101536.95;1803915;79;21459;-55
2023/05/09 02:12:40;;;;;;;7.78;3.10;;;;;;;8.84;39.16;101535.73;1803873;79;21051;-57
2023/05/09 02:15:10;;;;;;;5.72;3.15;;;;;;;8.84;39.19;101534.38;1804024;79;21439;-55
2023/05/09 02:17:41;;;;;;;8.20;2.80;;;;;;;8.84;39.17;101537.11;1803997;79;20992;-56
2023/05/09 02:20:10;;;;;;;5.90;2.90;;;;;;;8.85;39.39;101529.25;1804258;79;21082;-55
2023/05/09 02:22:41;;;;;;;6.60;2.80;;;;;;;8.87;39.08;101531.32;1804120;79;21000;-55
2023/05/09 02:25:13;;;;;;;4.85;3.00;;;;;;;8.89;38.98;101529.28;1804148;79;21091;-56
2023/05/09 02:27:44;;;;;;;6.47;3.33;;;;;;;8.91;39.18;101536.82;1804199;79;21004;-56
2023/05/09 02:30:22;;;;;;;5.20;2.87;;;;;;;8.91;39.33;101538.19;1803788;79;20995;-56
2023/05/09 02:33:01;;;;;;;6.12;3.15;;;;;;;8.92;39.18;101541.77;1803927;79;21008;-56
2023/05/09 02:35:30;;;;;;;6.87;3.35;;;;;;;8.90;39.23;101546.89;1803944;79;21478;-56
2023/05/09 02:38:00;;;;;;;6.12;3.02;;;;;;;8.93;38.98;101548.95;1804003;79;21020;-55
2023/05/09 02:40:29;;;;;;;5.92;3.10;;;;;;;8.92;38.99;101542.63;1804080;79;21000;-56
2023/05/09 02:42:58;;;;;;;4.28;2.62;;;;;;;8.93;39.30;101548.45;1803883;79;21063;-57
2023/05/09 02:45:28;;;;;;;7.37;3.00;;;;;;;8.92;38.97;101541.77;1803917;79;21019;-55
2023/05/09 02:47:56;;;;;;;6.85;2.60;;;;;;;8.91;39.00;101545.02;1803832;79;21031;-56
2023/05/09 02:50:26;;;;;;;6.58;3.08;;;;;;;8.93;39.19;101547.09;1804125;79;21039;-57
2023/05/09 02:52:55;;;;;;;6.00;2.95;;;;;;;8.96;39.08;101540.44;1803896;79;20976;-57
2023/05/09 02:55:24;;;;;;;4.85;2.92;;;;;;;8.99;39.08;101546.95;1803995;79;21277;-56
2023/05/09 02:57:54;;;;;;;8.65;2.83;;;;;;;9.02;39.08;101538.44;1804073;79;20983;-56
2023/05/09 03:00:26;;;;;;;6.65;3.00;;;;;;;9.00;39.30;101541.33;1801906;79;21031;-57
2023/05/09 03:02:55;;;;;;;7.28;3.27;;;;;;;8.98;38.74;101547.47;1777574;79;21012;-56
2023/05/09 03:05:24;;;;;;;7.22;2.87;;;;;;;8.99;38.99;101546.45;1804249;79;21475;-56
2023/05/09 03:07:54;;;;;;;4.40;2.60;;;;;;;9.01;39.15;101548.52;1804238;79;21502;-56
2023/05/09 03:10:23;;;;;;;4.05;2.47;;;;;;;9.04;39.17;101542.73;1804316;79;21007;-55
2023/05/09 03:12:52;;;;;;;9.20;2.80;;;;;;;9.07;39.05;101545.65;1804075;79;21042;-57
2023/05/09 03:15:22;;;;;;;4.80;2.67;;;;;;;9.07;38.74;101551.97;1804101;79;21086;-55
2023/05/09 03:17:51;;;;;;;7.47;2.95;;;;;;;9.09;38.78;101555.92;1804010;79;21442;-55
2023/05/09 03:20:21;;;;;;;7.20;2.83;;;;;;;9.11;38.78;101553.41;1804008;79;21517;-55
2023/05/09 03:22:50;;;;;;;4.55;2.45;;;;;;;9.12;38.86;101555.12;1804274;79;21008;-57
2023/05/09 03:25:19;;;;;;;8.43;3.10;;;;;;;9.12;38.74;101558.36;1804217;79;21035;-57
2023/05/09 03:27:47;;;;;;;6.42;2.60;;;;;;;9.11;38.89;101566.22;1803969;79;21314;-55
2023/05/09 03:30:17;;;;;;;7.20;3.02;;;;;;;9.08;39.16;101568.73;1815851;79;21075;-56
2023/05/09 03:32:47;;;;;;;6.78;3.30;;;;;;;9.08;39.31;101561.89;1788023;79;21501;-56
2023/05/09 03:35:18;;;;;;;7.25;2.70;;;;;;;9.10;39.40;101565.84;1819915;79;21457;-56
2023/05/09 03:37:46;;;;;;;5.12;2.80;;;;;;;9.11;39.21;101567.58;1819827;79;20971;-55
2023/05/09 03:40:16;;;;;;;6.15;2.90;;;;;;;9.13;39.07;101567.77;1820040;79;20999;-55
2023/05/09 03:42:47;;;;;;;4.60;2.92;;;;;;;9.17;39.27;101569.68;1819392;79;20995;-56
2023/05/09 03:45:15;;;;;;;7.90;2.75;;;;;;;9.25;39.21;101572.98;1787927;79;21050;-57
2023/05/09 03:47:46;;;;;;;6.22;2.72;;;;;;;9.26;39.21;101570.59;1819895;79;21031;-56
2023/05/09 03:50:16;;;;;;;5.35;3.08;;;;;;;9.26;39.25;101559.66;1819561;79;21034;-55
2023/05/09 03:52:46;;;;;;;6.42;3.10;;;;;;;9.28;39.39;101568.55;1819593;79;21496;-55
2023/05/09 03:55:17;;;;;;;5.42;2.70;;;;;;;9.26;39.19;101570.59;1819773;79;21449;-57
2023/05/09 03:57:46;;;;;;;5.15;2.90;;;;;;;9.25;39.31;101574.34;1819724;79;20995;-53
2023/05/09 04:00:17;;;;;;;6.58;3.10;;;;;;;9.22;39.32;101571.42;1819710;79;21058;-55
2023/05/09 04:02:49;;;;;;;4.62;2.80;;;;;;;9.20;39.54;101570.22;1819728;79;21007;-55
2023/05/09 04:05:20;;;;;;;4.45;2.70;;;;;;;9.23;39.82;101577.75;1818761;79;21522;-56
2023/05/09 04:08:00;;;;;;;4.72;2.47;;;;;;;9.24;39.74;101584.42;1767808;79;21122;-55
2023/05/09 04:10:31;;;;;;;10.58;2.92;;;;;;;9.25;39.47;101577.94;1819590;79;21485;-57
2023/05/09 04:13:00;;;;;;;8.00;3.10;;;;;;;9.22;39.56;101585.09;1819632;79;21082;-56
2023/05/09 04:15:28;;;;;;;6.83;2.90;;;;;;;9.20;39.77;101589.36;1819568;79;21023;-55
2023/05/09 04:17:58;;;;;;;5.90;2.67;;;;;;;9.17;39.80;101588.31;1819872;79;21031;-56
2023/05/09 04:20:27;;;;;;;4.67;3.10;;;;;;;9.20;39.84;101598.08;1819786;79;21391;-55
2023/05/09 04:22:57;;;;;;;4.87;2.72;;;;;;;9.21;39.76;101592.95;1819782;79;21525;-56
2023/05/09 04:25:28;;;;;;;6.80;3.00;;;;;;;9.20;40.08;101592.09;1819622;79;21075;-57
2023/05/09 04:27:57;;;;;;;5.40;3.15;;;;;;;9.20;39.90;101592.60;1819507;79;21074;-57
2023/05/09 04:30:27;;;;;;;6.60;2.90;;;;;;;9.22;40.05;101597.41;1819779;78;21034;-55
2023/05/09 04:32:58;;;;;;;5.05;3.00;;;;;;;9.26;40.12;101595.20;1788113;79;21459;-56
2023/05/09 04:35:29;;;;;;;5.60;2.95;;;;;;;9.29;39.98;101593.02;1819590;79;21439;-56
2023/05/09 04:37:58;;;;;;;10.38;3.52;;;;;;;9.33;39.84;101596.28;1819552;79;21466;-54
2023/05/09 04:40:27;;;;;;;6.00;2.87;;;;;;;9.32;40.05;101607.73;1819562;79;21003;-55
2023/05/09 04:42:59;;;;;;;5.15;2.90;;;;;;;9.31;39.93;101602.42;1819671;79;21003;-55
2023/05/09 04:45:30;;;;;;;7.83;2.90;;;;;;;9.33;40.07;101595.77;1819875;79;21443;-55
2023/05/09 04:48:00;;;;;;;8.15;2.83;;;;;;;9.35;39.86;101599.20;1819687;79;21042;-56
2023/05/09 04:50:30;;;;;;;6.45;2.70;;;;;;;9.37;40.01;101602.64;1819712;79;21039;-55
2023/05/09 04:52:58;;;;;;;5.87;2.50;;;;;;;9.43;40.02;101598.40;1819775;79;21493;-54
2023/05/09 04:55:28;;;;;;;8.10;3.00;;;;;;;9.50;39.75;101599.47;1819730;79;21011;-56
2023/05/09 04:57:57;;;;;;;7.75;3.08;;;;;;;9.57;39.48;101603.28;1819468;79;20987;-55
2023/05/09 05:00:26;;;;;;;8.68;2.90;;;;;;;9.63;39.39;101606.73;1787610;79;21019;-55
2023/05/09 05:02:55;;;;;;;5.78;3.25;;;;;;;9.69;39.46;101603.35;1819527;79;21481;-54
2023/05/09 05:05:25;;;;;;;5.28;2.70;;;;;;;9.72;39.39;101603.02;1819704;79;21450;-57
2023/05/09 05:07:55;;;;;;;6.70;2.75;;;;;;;9.76;39.30;101603.08;1819154;79;21058;-55
2023/05/09 05:10:26;;;;;;;7.30;2.80;;;;;;;9.82;39.35;101607.90;1819288;79;21003;-56
2023/05/09 05:12:57;;;;;;;4.92;2.55;;;;;;;9.86;39.48;101601.59;1818526;79;21474;-55
2023/05/09 05:15:26;;;;;;;7.78;3.83;;;;;;;9.90;39.15;101606.22;1819551;79;21443;-56
2023/05/09 05:17:56;;;;;;;6.15;2.77;;;;;;;9.92;39.22;101598.19;1819074;79;21407;-55
2023/05/09 05:20:27;;;;;;;8.38;2.67;;;;;;;10.00;39.10;101600.97;1819383;79;21007;-55
2023/05/09 05:22:57;;;;;;;3.80;2.60;;;;;;;10.10;39.02;101603.57;1819744;79;21450;-55
2023/05/09 05:25:26;;;;;;;9.43;4.78;;;;;;;10.25;38.61;101604.69;1819343;79;21450;-55
2023/05/09 05:27:56;;;;;;;4.00;2.27;;;;;;;10.36;38.77;101594.79;1819377;79;21472;-55
2023/05/09 05:30:25;;;;;;;5.58;2.40;;;;;;;10.57;38.18;101597.61;1819207;79;21501;-53
2023/05/09 05:32:54;;;;;;;6.03;2.50;;;;;;;10.71;37.92;101593.69;1819723;79;21006;-54
2023/05/09 05:35:23;;;;;;;12.65;3.45;;;;;;;10.79;37.96;101601.06;1819298;79;21007;-55
2023/05/09 05:37:53;;;;;;;6.97;2.30;;;;;;;10.86;37.88;101605.36;1819426;79;21504;-57
2023/05/09 05:40:23;;;;;;;4.87;2.40;;;;;;;10.90;38.08;101597.13;1819362;79;21027;-56
2023/05/09 05:42:53;;;;;;;7.30;2.58;;;;;;;10.96;37.63;101593.19;1819214;79;21423;-56
2023/05/09 05:45:23;;;;;;;6.40;2.10;;;;;;;11.03;37.73;101593.36;1819713;79;21439;-56
2023/05/09 05:47:55;;;;;;;5.08;2.27;;;;;;;11.04;37.25;101597.30;1819183;79;21497;-56
2023/05/09 05:50:26;;;;;;;9.80;2.83;;;;;;;11.08;37.27;101604.19;1819659;79;21043;-54
2023/05/09 05:52:55;;;;;;;3.98;2.35;;;;;;;11.16;37.38;101607.45;1819406;79;21480;-55
2023/05/09 05:55:23;;;;;;;10.68;2.40;;;;;;;11.23;37.04;101606.24;1819164;79;21058;-54
2023/05/09 05:57:52;;;;;;;4.17;2.35;;;;;;;11.32;36.76;101601.09;1819399;79;20971;-56
2023/05/09 06:00:22;;;;;;;5.08;2.55;;;;;;;11.39;36.63;101599.36;1820128;79;21034;-56
2023/05/09 06:02:52;;;;;;;4.50;2.33;;;;;;;11.45;36.43;101608.27;1786879;79;22015;-57
2023/05/09 06:05:23;;;;;;;13.10;3.05;;;;;;;11.50;36.45;101600.89;1817936;79;21451;-55
2023/05/09 06:07:52;;;;;;;6.42;2.52;;;;;;;11.55;36.95;101605.34;1788118;79;21526;-57
2023/05/09 06:10:22;;;;;;;4.85;2.20;;;;;;;11.58;36.93;101604.99;1819574;79;20999;-55
2023/05/09 06:12:50;;;;;;;4.97;2.25;;;;;;;11.68;36.55;101600.16;1819524;79;21399;-56
2023/05/09 06:15:19;;;;;;;5.60;2.25;;;;;;;11.80;36.21;101602.08;1819701;79;21054;-55
2023/05/09 06:17:50;;;;;;;5.70;2.08;;;;;;;11.87;35.96;101605.31;1819572;79;21411;-55
2023/05/09 06:20:19;;;;;;;6.08;2.30;;;;;;;11.99;35.89;101600.30;1819723;79;21489;-56
2023/05/09 06:22:48;;;;;;;2.98;2.20;;;;;;;12.14;35.56;101601.26;1819728;79;21074;-56
2023/05/09 06:25:18;;;;;;;5.10;2.33;;;;;;;12.26;35.79;101601.20;1819555;79;21043;-56
2023/05/09 06:27:47;;;;;;;5.05;2.15;;;;;;;12.48;35.02;101606.44;1819556;79;21078;-57
2023/05/09 06:30:15;;;;;;;5.33;2.77;;;;;;;12.63;34.82;101600.50;1813787;79;21055;-55
2023/05/09 06:32:46;;;;;;;5.60;2.70;;;;;;;12.80;34.64;101599.01;1802627;79;21051;-55
2023/05/09 06:35:15;;;;;;;6.47;2.80;;;;;;;12.92;34.57;101595.65;1804230;79;21000;-56
2023/05/09 06:37:45;;;;;;;7.55;2.30;;;;;;;13.07;34.45;101594.88;1804454;79;21043;-55
2023/05/09 06:40:16;;;;;;;6.03;2.55;;;;;;;13.20;34.17;101591.01;1804246;79;21469;-54
2023/05/09 06:42:45;;;;;;;4.87;2.40;;;;;;;13.36;33.42;101589.48;1803972;79;20976;-56
2023/05/09 06:45:14;;;;;;;4.42;2.33;;;;;;;13.58;33.60;101587.18;1803919;79;20984;-56
2023/05/09 06:47:43;;;;;;;9.70;2.60;;;;;;;14.00;33.10;101584.31;1804109;79;21000;-56
2023/05/09 06:50:12;;;;;;;10.15;2.50;;;;;;;14.34;32.45;101596.13;1804166;79;21039;-54
2023/05/09 06:52:41;;;;;;;4.80;2.37;;;;;;;14.54;32.28;101587.61;1803950;79;21448;-57
2023/05/09 06:55:11;;;;;;;5.62;2.62;;;;;;;14.72;31.48;101585.78;1804326;79;21007;-57
2023/05/09 06:57:40;;;;;;;5.45;3.30;;;;;;;14.81;31.34;101590.13;1803930;79;21027;-56
2023/05/09 07:00:10;;;;;;;3.55;2.47;;;;;;;14.95;30.77;101586.12;1804156;79;21941;-56
2023/05/09 07:02:40;;;;;;;4.47;2.47;;;;;;;15.03;30.99;101580.49;1804037;79;21027;-56
2023/05/09 07:05:10;;;;;;;4.87;2.50;;;;;;;15.12;30.92;101576.02;1803974;79;21043;-56
2023/05/09 07:07:41;;;;;;;6.40;2.95;;;;;;;15.30;30.52;101578.81;1804367;79;21471;-57
2023/05/09 07:10:11;;;;;;;4.65;2.20;;;;;;;15.54;30.14;101570.08;1803912;79;21489;-58
2023/05/09 07:12:41;;;;;;;7.03;2.87;;;;;;;15.64;30.17;101575.30;1803962;79;21043;-57
2023/05/09 07:15:11;;;;;;;6.70;3.12;;;;;;;15.53;30.03;101565.08;1803987;79;21455;-58
2023/05/09 07:17:41;;;;;;;7.30;2.70;;;;;;;15.46;29.93;101566.94;1804355;79;21470;-57
2023/05/09 07:20:10;;;;;;;2.83;1.80;;;;;;;15.44;29.85;101566.28;1804077;79;21529;-56
2023/05/09 07:22:39;;;;;;;3.45;1.62;;;;;;;15.45;29.05;101561.61;1803890;79;21066;-56
2023/05/09 07:25:10;;;;;;;15.15;3.42;;;;;;;15.47;29.00;101554.83;1804233;79;21051;-56
2023/05/09 07:27:38;;;;;;;6.67;1.90;;;;;;;15.55;28.55;101560.20;1803951;79;21012;-56
2023/05/09 07:30:10;;;;;;;6.92;1.90;;;;;;;15.66;27.85;101549.70;1803972;79;21020;-57
2023/05/09 07:32:40;;;;;;;4.00;1.77;;;;;;;15.73;27.41;101547.84;1804173;79;20999;-57
2023/05/09 07:35:08;;;;;;;2.92;1.60;;;;;;;15.85;27.46;101544.29;1804073;79;21016;-57
2023/05/09 07:37:37;;;;;;;4.35;2.17;;;;;;;16.05;27.31;101537.48;1804176;79;21067;-56
2023/05/09 07:40:09;;;;;;;4.60;1.60;;;;;;;16.35;26.46;101551.02;1804104;79;21016;-56
2023/05/09 07:42:38;;;;;;;2.67;1.40;;;;;;;16.64;25.32;101527.69;1804294;79;21467;-56
2023/05/09 07:45:11;;;;;;;4.55;1.80;;;;;;;16.83;25.29;101532.95;1804180;79;21000;-58
2023/05/09 07:47:40;;;;;;;4.67;1.60;;;;;;;17.13;25.00;101535.67;1803877;79;21098;-57
2023/05/09 07:50:10;;;;;;;4.85;1.87;;;;;;;17.44;24.30;101520.61;1804196;79;21075;-58
2023/05/09 07:52:40;;;;;;;4.30;1.70;;;;;;;17.77;23.86;101525.30;1779714;79;21433;-59
2023/05/09 07:55:11;;;;;;;3.37;1.80;;;;;;;17.92;22.94;101527.80;1772150;81;21025;-57
2023/05/09 07:57:40;;;;;;;2.67;1.72;;;;;;;17.77;22.64;101524.45;1771904;81;21460;-57
2023/05/09 08:00:10;;;;;;;12.10;3.12;;;;;;;17.52;23.21;101527.00;1769856;80;22171;-61
2023/05/09 08:02:41;;;;;;;3.52;1.55;;;;;;;17.20;22.96;101528.21;1771788;80;21054;-59
2023/05/09 08:05:12;;;;;;;5.05;1.80;;;;;;;16.92;23.11;101525.66;1772073;80;21495;-57
2023/05/09 08:07:41;;;;;;;2.12;1.42;;;;;;;16.70;23.78;101532.41;1771920;81;21402;-57
2023/05/09 08:10:11;;;;;;;3.98;1.50;;;;;;;16.71;22.05;101533.58;1771737;81;21432;-58
2023/05/09 08:12:39;;;;;;;2.65;1.60;;;;;;;16.76;22.88;101524.12;1772059;81;21056;-57
2023/05/09 08:15:10;;;;;;;4.67;2.00;;;;;;;16.95;22.99;101529.38;1771693;81;21626;-57
2023/05/09 08:17:39;;;;;;;5.67;1.75;;;;;;;17.04;23.65;101523.95;1744268;81;20999;-59
2023/05/09 08:20:10;;;;;;;4.22;1.92;;;;;;;17.00;23.18;101516.28;1772084;81;21035;-63
2023/05/09 08:22:39;;;;;;;9.20;1.90;;;;;;;16.90;23.35;101515.82;1772143;81;20955;-57
2023/05/09 08:25:09;;;;;;;3.95;1.60;;;;;;;16.78;22.94;101510.91;1771894;81;21043;-58
2023/05/09 08:27:38;;;;;;;7.03;1.70;;;;;;;16.53;23.36;101518.09;1744306;81;21059;-58
2023/05/09 08:30:10;;;;;;;4.92;1.75;;;;;;;16.20;23.45;101517.11;1771764;80;21467;-59
2023/05/09 08:32:39;;;;;;;5.12;1.95;;;;;;;16.05;24.51;101515.36;1771818;81;21015;-58
2023/05/09 08:35:08;;;;;;;2.05;1.40;;;;;;;15.97;24.46;101507.77;1771721;81;21031;-58
2023/05/09 08:37:38;;;;;;;3.20;1.45;;;;;;;15.91;24.16;101517.73;1771921;81;21023;-58
2023/05/09 08:40:08;;;;;;;3.02;1.55;;;;;;;15.87;24.15;101516.45;1771777;80;21043;-59
2023/05/09 08:42:38;;;;;;;5.12;1.67;;;;;;;15.78;24.18;101508.00;1771855;81;21042;-57
2023/05/09 08:45:09;;;;;;;4.65;1.67;;;;;;;15.69;23.97;101511.47;1772181;81;21031;-58
2023/05/09 08:47:38;;;;;;;6.08;1.50;;;;;;;15.56;23.67;101504.42;1771865;81;21031;-58
2023/05/09 08:50:10;;;;;;;3.05;1.60;;;;;;;15.41;23.94;101504.55;1772018;81;21921;-57
2023/05/09 08:52:39;;;;;;;3.25;1.47;;;;;;;15.35;23.76;101505.35;1772008;81;21023;-59
2023/05/09 08:55:08;;;;;;;4.00;1.65;;;;;;;15.30;23.24;101505.11;1771998;80;21000;-57
2023/05/09 08:57:37;;;;;;;3.17;1.50;;;;;;;15.34;23.25;101512.45;1771923;81;20979;-57
2023/05/09 09:00:10;;;;;;;3.05;1.52;;;;;;;15.45;23.02;101507.75;1771960;81;20968;-60
2023/05/09 09:02:42;;;;;;;3.08;1.57;;;;;;;15.60;22.71;101504.90;1772093;81;20991;-58
2023/05/09 09:05:10;;;;;;;4.60;2.10;;;;;;;15.66;22.92;101493.91;1771592;81;21034;-59
2023/05/09 09:07:43;;;;;;;6.45;2.47;;;;;;;15.73;23.24;101498.09;1768568;81;21023;-57
2023/05/09 09:10:11;;;;;;;5.10;1.98;;;;;;;15.86;23.03;101492.62;1772159;80;21035;-58
2023/05/09 09:12:40;;;;;;;3.12;1.30;;;;;;;16.01;21.94;101498.86;1772178;80;21034;-58
2023/05/09 09:15:13;;;;;;;3.15;1.42;;;;;;;16.05;21.85;101489.09;1771837;81;21002;-58
2023/05/09 09:17:43;;;;;;;3.47;1.50;;;;;;;15.95;21.81;101499.69;1771880;81;21047;-58
2023/05/09 09:20:12;;;;;;;2.40;1.40;;;;;;;15.80;21.77;101492.92;1771916;81;20979;-57
2023/05/09 09:22:42;;;;;;;3.80;1.60;;;;;;;15.67;21.93;101485.09;1772006;81;20995;-59
2023/05/09 09:25:11;;;;;;;4.47;2.00;;;;;;;15.52;21.96;101486.02;1771874;80;21035;-58
2023/05/09 09:27:40;;;;;;;4.30;1.50;;;;;;;15.41;22.11;101489.88;1771889;80;20971;-58
2023/05/09 09:30:11;;;;;;;3.00;1.30;;;;;;;15.36;22.37;101493.25;1744407;81;21094;-60
2023/05/09 09:32:40;;;;;;;1.95;1.60;;;;;;;15.38;22.52;101488.38;1766329;81;21027;-57
2023/05/09 09:35:10;;;;;;;4.95;2.15;;;;;;;15.42;22.43;101481.39;1766090;81;21027;-59
2023/05/09 09:37:40;;;;;;;5.15;2.17;;;;;;;15.46;22.23;101475.78;1766196;81;20992;-58
2023/05/09 09:40:13;;;;;;;3.08;1.60;;;;;;;15.42;22.86;101483.30;1766343;81;21008;-59
2023/05/09 09:42:44;;;;;;;2.72;1.50;;;;;;;15.42;22.54;101481.39;1766016;80;21035;-59
2023/05/09 09:45:18;;;;;;;5.70;1.92;;;;;;;15.44;22.78;101484.80;1766010;81;20963;-58
2023/05/09 09:47:49;;;;;;;4.33;1.60;;;;;;;15.39;22.48;101476.27;1766189;81;21071;-58
2023/05/09 09:50:21;;;;;;;3.12;1.50;;;;;;;15.24;22.59;101475.54;1766042;81;21015;-57
2023/05/09 09:52:56;;;;;;;2.90;1.50;;;;;;;15.16;22.80;101477.08;1766209;81;21051;-59
2023/05/09 09:55:25;;;;;;;3.02;1.55;;;;;;;15.17;23.09;101469.12;1766182;80;21027;-58
2023/05/09 09:57:55;;;;;;;5.53;1.70;;;;;;;15.18;22.81;101463.92;1766417;81;21376;-58
2023/05/09 10:00:27;;;;;;;2.77;1.60;;;;;;;15.13;22.83;101464.53;1766134;81;21066;-58
2023/05/09 10:02:58;;;;;;;3.70;1.60;;;;;;;15.24;23.03;101464.49;1766171;81;21016;-59
2023/05/09 10:05:29;;;;;;;2.35;1.60;;;;;;;15.35;22.41;101463.08;1765980;80;21006;-59
2023/05/09 10:08:02;;;;;;;2.40;1.50;;;;;;;15.42;22.29;101466.20;1785305;80;21083;-57
2023/05/09 10:10:33;;;;;;;2.50;1.50;;;;;;;15.51;22.16;101462.21;1797653;80;21451;-58
2023/05/09 10:13:09;;;;;;;4.53;1.65;;;;;;;15.59;22.40;101470.04;1797481;80;21043;-59
2023/05/09 10:15:39;;;;;;;11.30;2.47;;;;;;;15.65;22.14;101466.48;1797565;80;21035;-59
2023/05/09 10:18:10;;;;;;;2.80;1.40;;;;;;;15.68;22.09;101470.23;1795824;79;21498;-59
2023/05/09 10:20:40;;;;;;;10.40;3.87;;;;;;;15.71;22.11;101462.38;1777823;80;21047;-56
2023/05/09 10:23:10;;;;;;;4.47;1.60;;;;;;;15.70;22.29;101463.96;1797716;80;21043;-57
2023/05/09 10:25:47;;;;;;;4.85;1.92;;;;;;;15.65;22.38;101459.58;1797590;80;20980;-62
2023/05/09 10:28:18;;;;;;;2.30;1.47;;;;;;;15.64;22.74;101460.64;1797689;79;21446;-60
2023/05/09 10:31:10;;;;;;;3.37;1.60;;;;;;;15.63;22.64;101456.17;1797911;79;21436;-59
2023/05/09 10:33:47;;;;;;;4.22;1.37;;;;;;;15.63;22.69;101461.17;1803396;79;21486;-58
2023/05/09 10:36:19;;;;;;;2.50;1.52;;;;;;;15.63;22.73;101459.79;1803630;79;21059;-58
2023/05/09 10:38:49;;;;;;;6.15;1.82;;;;;;;15.60;22.73;101456.55;1803348;79;21027;-57
2023/05/09 10:41:18;;;;;;;3.05;1.40;;;;;;;15.54;22.54;101448.52;1803705;79;21088;-57
2023/05/09 10:43:47;;;;;;;2.77;1.40;;;;;;;15.49;22.78;101451.05;1773369;79;21015;-58
2023/05/09 10:46:17;;;;;;;5.87;1.42;;;;;;;15.46;23.14;101449.55;1803453;79;21071;-59
2023/05/09 10:48:48;;;;;;;2.52;1.42;;;;;;;15.47;23.40;101449.87;1803349;79;21031;-57
2023/05/09 10:51:17;;;;;;;3.60;1.65;;;;;;;15.52;22.94;101445.11;1803305;79;21016;-58
2023/05/09 10:53:48;;;;;;;2.45;1.52;;;;;;;15.56;22.82;101446.41;1778410;78;21187;-57
2023/05/09 10:56:31;;;;;;;3.67;1.87;;;;;;;15.57;23.04;101444.49;1744598;82;21471;-57
2023/05/09 10:59:01;;;;;;;4.17;1.60;;;;;;;15.59;22.67;101438.27;1723686;82;21032;-58
2023/05/09 11:01:39;;;;;;;5.45;1.85;;;;;;;15.57;22.64;101437.59;1713694;82;21054;-59
2023/05/09 11:04:13;;;;;;;4.37;2.10;;;;;;;15.50;22.65;101443.08;1713515;83;21090;-58
2023/05/09 11:06:52;;;;;;;3.65;1.77;;;;;;;15.49;22.99;101437.23;1713491;82;21063;-55
2023/05/09 11:09:36;;;;;;;3.10;1.55;;;;;;;15.50;22.62;101435.64;1712959;83;21471;-58
2023/05/09 11:12:11;;;;;;;3.02;1.40;;;;;;;15.44;22.81;101432.85;1692151;84;21027;-58
2023/05/09 11:14:51;;;;;;;5.65;1.67;;;;;;;15.39;23.08;101423.80;1713564;83;21015;-57
2023/05/09 11:17:27;;;;;;;5.92;1.62;;;;;;;15.38;23.21;101424.85;1712433;81;21039;-59
2023/05/09 11:20:04;;;;;;;6.58;1.65;;;;;;;15.41;23.19;101428.59;1714117;82;21089;-57
2023/05/09 11:22:42;;;;;;;4.25;1.57;;;;;;;15.45;23.00;101433.17;1713689;84;21035;-58
2023/05/09 11:25:12;;;;;;;2.77;1.50;;;;;;;15.42;23.26;101422.01;1713714;84;21083;-59
2023/05/09 11:27:45;;;;;;;2.65;1.65;;;;;;;15.40;23.28;101419.98;1713859;84;21051;-56
2023/05/09 11:30:15;;;;;;;5.42;1.62;;;;;;;15.39;23.98;101419.66;1713766;84;21059;-57
2023/05/09 11:32:48;;;;;;;3.65;1.45;;;;;;;15.37;24.53;101423.15;1713866;82;21011;-57
2023/05/09 11:35:20;;;;;;;4.75;1.92;;;;;;;15.40;24.20;101414.45;1713733;82;21043;-59
2023/05/09 11:38:03;;;;;;;5.85;3.12;;;;;;;15.40;24.89;101408.08;1713527;82;21114;-58
2023/05/09 11:40:33;;;;;;;5.12;2.60;;;;;;;15.42;25.08;101408.73;1713909;82;21098;-55
2023/05/09 11:43:03;;;;;;;5.85;1.80;;;;;;;15.44;24.95;101412.98;1713626;84;21127;-58
2023/05/09 11:45:32;;;;;;;5.67;2.08;;;;;;;15.49;24.84;101407.70;1713634;83;21501;-58